Time;durP1;ratioP1;P1;durP2;ratioP2;P2;SDS_P1;SDS_P2;PMS_P1;PMS_P2;Temp;Humidity;BMP_temperature;BMP_pressure;BME280_temperature;BME280_humidity;BME280_pressure;Samples;Min_cycle;Max_cycle;Signal;HPM_P1;HPM_P2
2023/07/11 00:02:42;;;;;;;3.67;2.75;;;;;;;21.18;61.21;98149.69;10531862;28;20052;-74
2023/07/11 00:08:03;;;;;;;5.22;2.85;;;;;;;21.12;61.19;98149.47;10517938;28;20040;-75
2023/07/11 00:13:24;;;;;;;5.97;3.13;;;;;;;21.07;61.26;98150.75;10517486;28;20430;-75
2023/07/11 00:18:45;;;;;;;4.15;2.95;;;;;;;21.02;61.46;98155.53;10517200;28;20047;-75
2023/07/11 00:24:06;;;;;;;3.95;3.13;;;;;;;20.96;61.55;98148.97;10517134;28;20489;-75
2023/07/11 00:29:27;;;;;;;5.00;2.90;;;;;;;20.93;62.05;98150.25;10516804;28;20064;-75
2023/07/11 00:34:47;;;;;;;7.88;3.00;;;;;;;20.93;61.73;98155.94;10516661;28;20070;-75
2023/07/11 00:40:10;;;;;;;5.18;2.88;;;;;;;20.91;62.01;98150.19;10516567;28;20123;-75
2023/07/11 00:45:49;;;;;;;7.68;3.38;;;;;;;20.85;62.63;98151.47;10502447;28;20064;-75
2023/07/11 00:51:14;;;;;;;8.15;3.65;;;;;;;20.76;62.07;98151.84;10529819;28;20593;-75
2023/07/11 00:56:44;;;;;;;4.50;3.28;;;;;;;20.63;62.63;98147.84;10501498;28;20036;-75
2023/07/11 01:02:25;;;;;;;4.70;2.95;;;;;;;20.60;63.12;98137.81;10501408;28;20120;-74
2023/07/11 01:07:47;;;;;;;6.43;3.65;;;;;;;20.59;62.93;98122.19;10515340;28;20387;-75
2023/07/11 01:13:08;;;;;;;5.07;3.13;;;;;;;20.56;63.27;98126.34;10528798;28;20062;-75
2023/07/11 01:18:29;;;;;;;4.65;3.15;;;;;;;20.46;63.50;98108.97;10543982;28;20155;-75
2023/07/11 01:23:50;;;;;;;5.80;3.13;;;;;;;20.36;63.51;98112.16;10514918;28;20171;-75
2023/07/11 01:29:11;;;;;;;7.38;3.17;;;;;;;20.30;63.76;98109.84;10500698;28;20064;-75
2023/07/11 01:34:33;;;;;;;5.25;3.08;;;;;;;20.24;63.89;98120.97;10500945;28;20044;-75
2023/07/11 01:39:54;;;;;;;5.05;3.10;;;;;;;20.16;64.46;98105.78;10543116;28;20156;-75
2023/07/11 01:45:14;;;;;;;7.18;3.10;;;;;;;20.07;64.39;98098.34;10513713;28;20115;-75
2023/07/11 01:50:35;;;;;;;4.03;2.90;;;;;;;20.04;64.47;98100.41;10527502;28;20074;-75
2023/07/11 01:55:57;;;;;;;6.95;3.55;;;;;;;20.00;64.75;98097.44;10513483;28;20115;-75
2023/07/11 02:01:19;;;;;;;4.35;3.05;;;;;;;20.00;64.65;98100.25;10513219;28;20048;-75
2023/07/11 02:06:39;;;;;;;6.88;3.35;;;;;;;19.98;64.84;98097.38;10511799;28;20144;-74
2023/07/11 02:12:01;;;;;;;5.30;3.42;;;;;;;20.00;64.63;98103.09;10498968;28;20060;-75
2023/07/11 02:17:22;;;;;;;6.03;3.42;;;;;;;20.01;64.43;98099.59;10526539;28;20042;-76
2023/07/11 02:22:43;;;;;;;5.57;3.45;;;;;;;19.98;64.46;98094.53;10541566;28;20133;-75
2023/07/11 02:28:04;;;;;;;4.88;3.35;;;;;;;19.93;64.56;98107.09;10498020;28;20078;-75
2023/07/11 02:33:25;;;;;;;7.28;3.33;;;;;;;19.94;64.90;98108.53;10525913;28;20115;-75
2023/07/11 02:38:45;;;;;;;4.95;3.28;;;;;;;20.10;64.62;98119.75;10484115;28;20078;-75
2023/07/11 02:44:06;;;;;;;5.88;2.90;;;;;;;20.18;64.00;98117.91;10511750;28;20094;-75
2023/07/11 02:49:26;;;;;;;3.72;2.80;;;;;;;20.29;64.18;98111.22;10497452;28;20063;-75
2023/07/11 02:54:47;;;;;;;4.40;2.95;;;;;;;20.37;64.13;98119.28;10525183;28;20527;-75
2023/07/11 03:00:08;;;;;;;7.45;3.30;;;;;;;20.39;63.51;98116.53;10525202;28;20040;-76
2023/07/11 03:05:29;;;;;;;3.95;2.80;;;;;;;20.47;63.36;98113.28;10510934;28;20082;-74
2023/07/11 03:10:50;;;;;;;6.05;3.05;;;;;;;20.53;63.65;98116.31;10524692;28;20072;-75
2023/07/11 03:16:11;;;;;;;4.70;3.20;;;;;;;20.56;63.69;98103.66;10510647;28;20139;-75
2023/07/11 03:21:31;;;;;;;7.93;2.90;;;;;;;20.53;63.63;98108.53;10535358;28;20505;-75
2023/07/11 03:26:52;;;;;;;4.68;3.15;;;;;;;20.50;63.58;98111.97;10510584;28;20074;-75
2023/07/11 03:32:12;;;;;;;5.38;3.03;;;;;;;20.50;63.37;98115.50;10524291;28;20186;-75
2023/07/11 03:37:34;;;;;;;8.43;2.97;;;;;;;20.55;63.38;98111.44;10538502;28;20136;-75
2023/07/11 03:42:55;;;;;;;4.72;2.92;;;;;;;20.68;63.43;98117.53;10524049;28;20474;-75
2023/07/11 03:48:15;;;;;;;7.13;3.00;;;;;;;20.82;63.25;98115.88;10524095;28;20122;-75
2023/07/11 03:53:36;;;;;;;5.63;3.30;;;;;;;21.10;62.75;98123.88;10523734;28;20495;-75
2023/07/11 03:58:57;;;;;;;5.47;3.72;;;;;;;21.30;62.58;98118.84;10537667;28;20067;-75
2023/07/11 04:04:18;;;;;;;6.82;2.90;;;;;;;21.47;62.04;98116.53;10552975;28;20521;-75
2023/07/11 04:09:40;;;;;;;5.28;3.38;;;;;;;21.58;61.78;98119.00;10523714;28;20048;-75
2023/07/11 04:15:01;;;;;;;4.33;3.00;;;;;;;21.77;61.70;98120.28;10509930;28;20121;-75
2023/07/11 04:20:21;;;;;;;5.47;3.25;;;;;;;21.97;61.41;98125.81;10523094;28;20068;-75
2023/07/11 04:25:42;;;;;;;6.82;3.42;;;;;;;22.12;60.84;98112.78;10537443;28;20118;-75
2023/07/11 04:31:03;;;;;;;4.93;3.17;;;;;;;22.22;60.35;98113.78;10519600;28;20111;-76
2023/07/11 04:36:23;;;;;;;8.93;3.45;;;;;;;22.25;59.08;98118.13;10517003;28;20465;-75
2023/07/11 04:41:44;;;;;;;5.95;3.30;;;;;;;22.29;58.70;98114.66;10516319;28;20132;-76
2023/07/11 04:47:06;;;;;;;7.80;3.78;;;;;;;22.27;58.28;98117.44;10530177;28;20070;-75
2023/07/11 04:52:28;;;;;;;6.38;3.13;;;;;;;22.48;57.90;98127.25;10530121;28;20147;-75
2023/07/11 04:57:49;;;;;;;4.90;3.27;;;;;;;23.00;57.09;98124.34;10529996;28;20123;-75
2023/07/11 05:03:10;;;;;;;6.57;3.33;;;;;;;23.38;55.90;98130.22;10544959;28;20074;-76
2023/07/11 05:08:31;;;;;;;5.65;3.40;;;;;;;23.75;55.16;98128.94;10515238;28;20059;-75
2023/07/11 05:13:52;;;;;;;5.38;3.42;;;;;;;24.20;53.80;98127.72;10515230;28;20484;-75
2023/07/11 05:19:12;;;;;;;4.43;3.40;;;;;;;24.54;52.08;98118.41;10515147;28;20162;-75
2023/07/11 05:24:33;;;;;;;8.05;3.28;;;;;;;25.06;51.56;98121.47;10528414;28;20067;-76
2023/07/11 05:29:54;;;;;;;7.65;3.70;;;;;;;25.60;49.82;98128.72;10543628;28;20044;-76
2023/07/11 05:35:15;;;;;;;6.75;3.20;;;;;;;25.98;48.67;98122.09;10528079;28;20066;-76
2023/07/11 05:40:40;;;;;;;5.03;3.20;;;;;;;26.28;47.68;98125.31;10514337;28;20055;-75
2023/07/11 05:46:01;;;;;;;6.80;2.78;;;;;;;26.69;46.85;98126.50;10499937;28;20056;-76
2023/07/11 05:51:23;;;;;;;4.95;3.00;;;;;;;26.89;45.26;98125.97;10527566;28;20051;-75
2023/07/11 05:56:45;;;;;;;5.15;3.10;;;;;;;26.91;44.66;98125.97;10513622;28;20051;-75
2023/07/11 06:02:05;;;;;;;4.90;3.15;;;;;;;27.11;44.26;98116.84;10512669;28;20048;-74
2023/07/11 06:07:28;;;;;;;4.18;3.10;;;;;;;27.21;43.87;98116.22;10526925;28;20075;-76
2023/07/11 06:12:49;;;;;;;6.55;2.85;;;;;;;27.65;42.65;98119.41;10485109;28;20123;-76
2023/07/11 06:18:10;;;;;;;3.72;2.53;;;;;;;28.16;41.83;98119.63;10526498;28;20072;-75
2023/07/11 06:23:31;;;;;;;5.53;3.15;;;;;;;28.75;40.18;98119.81;10541187;28;20484;-76
2023/07/11 06:28:51;;;;;;;4.32;3.13;;;;;;;28.54;39.64;98120.50;10525849;28;20063;-76
2023/07/11 06:34:13;;;;;;;4.10;2.73;;;;;;;28.24;39.91;98108.19;10511934;28;20047;-76
2023/07/11 06:39:33;;;;;;;3.90;2.40;;;;;;;28.50;39.13;98112.59;10525477;28;20058;-76
2023/07/11 06:44:54;;;;;;;4.57;3.20;;;;;;;28.74;39.20;98109.75;10497683;28;20547;-76
2023/07/11 06:50:15;;;;;;;4.57;2.67;;;;;;;29.84;38.50;98103.94;10511096;28;20055;-76
2023/07/11 06:55:36;;;;;;;3.63;2.53;;;;;;;30.53;35.81;98107.97;10511211;28;20469;-78
2023/07/11 07:01:02;;;;;;;3.78;2.33;;;;;;;30.20;35.48;98105.97;10525069;28;20051;-76
2023/07/11 07:06:24;;;;;;;3.92;2.17;;;;;;;31.06;35.58;98106.13;10510811;28;20055;-76
2023/07/11 07:11:45;;;;;;;3.60;2.30;;;;;;;31.70;33.90;98112.06;10524859;28;20059;-76
2023/07/11 07:17:07;;;;;;;4.90;2.80;;;;;;;31.18;32.82;98107.50;10496847;28;20040;-76
2023/07/11 07:22:27;;;;;;;5.80;2.13;;;;;;;29.95;33.89;98101.75;10524820;28;20474;-75
2023/07/11 07:27:48;;;;;;;4.07;2.45;;;;;;;29.70;34.71;98101.09;10510286;28;20405;-75
2023/07/11 07:33:09;;;;;;;9.00;3.17;;;;;;;29.56;35.33;98090.38;10510529;28;20036;-77
2023/07/11 07:38:29;;;;;;;5.88;3.00;;;;;;;29.98;34.58;98096.69;10510257;28;20063;-75
2023/07/11 07:43:50;;;;;;;5.70;3.50;;;;;;;29.98;34.77;98083.03;10510246;28;20505;-75
2023/07/11 07:49:11;;;;;;;5.40;2.97;;;;;;;31.18;33.08;98084.44;10510165;28;20091;-78
2023/07/11 07:54:32;;;;;;;9.87;3.43;;;;;;;31.88;32.12;98080.13;10523965;28;20066;-77
2023/07/11 07:59:53;;;;;;;7.18;3.00;;;;;;;32.47;31.15;98076.47;10509818;28;20043;-75
2023/07/11 08:05:17;;;;;;;;;;;;;;;33.12;29.87;98074.75;10539589;28;20052;-77
2023/07/11 08:10:39;;;;;;;3.85;2.80;;;;;;;32.94;29.57;98077.94;10546870;28;19966;-76
2023/07/11 08:16:01;;;;;;;7.10;2.50;;;;;;;33.07;29.55;98070.50;10531472;28;20040;-77
2023/07/11 08:21:38;;;;;;;7.15;2.67;;;;;;;33.52;28.93;98066.81;10533605;28;20575;-75
2023/07/11 08:27:00;;;;;;;3.75;2.30;;;;;;;34.13;27.91;98063.41;10530851;28;20082;-77
2023/07/11 08:32:21;;;;;;;4.45;2.60;;;;;;;33.75;27.39;98067.78;10516570;28;20036;-76
2023/07/11 08:37:43;;;;;;;4.45;2.45;;;;;;;34.21;27.59;98062.53;10530809;28;20046;-77
2023/07/11 08:43:05;;;;;;;4.75;2.45;;;;;;;35.31;26.68;98065.69;10516551;28;20494;-76
2023/07/11 08:48:33;;;;;;;4.88;2.53;;;;;;;34.62;25.76;98052.91;10502624;28;20051;-77
2023/07/11 08:54:17;;;;;;;5.68;1.98;;;;;;;34.46;26.84;98044.63;10502526;28;20040;-77
2023/07/11 09:00:10;;;;;;;3.58;2.30;;;;;;;34.70;25.88;98030.25;10530035;28;20393;-77
2023/07/11 09:05:55;;;;;;;4.32;2.40;;;;;;;34.80;26.08;98029.28;10517734;28;20052;-76
2023/07/11 09:11:24;;;;;;;4.20;2.70;;;;;;;34.36;25.79;98031.78;10488575;28;20481;-76
2023/07/11 09:17:14;;;;;;;5.85;2.78;;;;;;;34.12;26.33;98032.31;10528590;28;20044;-76
2023/07/11 09:22:48;;;;;;;;;;;;;;;34.31;26.76;98027.53;10523335;28;20517;-76
2023/07/11 09:28:24;;;;;;;5.57;2.97;;;;;;;34.18;26.37;98014.09;10528601;28;20376;-77
2023/07/11 09:33:55;;;;;;;5.90;2.60;;;;;;;33.86;27.21;98010.41;10515110;28;20044;-76
2023/07/11 09:39:31;;;;;;;;;;;;;;;33.12;28.54;98019.81;10528517;28;20047;-76
2023/07/11 09:45:12;;;;;;;6.47;3.17;;;;;;;33.45;28.42;98010.53;10527783;28;19920;-76
2023/07/11 09:51:01;;;;;;;7.00;3.28;;;;;;;34.71;26.98;98008.47;10514559;28;20048;-76
2023/07/11 09:56:25;;;;;;;5.43;3.60;;;;;;;34.74;26.07;98000.44;10542410;28;20478;-76
2023/07/11 10:01:55;;;;;;;8.15;3.33;;;;;;;34.59;26.49;97999.38;10526988;28;20119;-76
2023/07/11 10:07:16;;;;;;;6.45;3.53;;;;;;;34.24;26.97;97982.78;10499264;28;20055;-76
2023/07/11 10:12:37;;;;;;;4.97;3.45;;;;;;;34.80;26.73;97973.50;10526557;28;20039;-76
2023/07/11 10:17:58;;;;;;;5.40;3.95;;;;;;;34.15;26.91;97967.06;10498679;28;20040;-76
2023/07/11 10:23:24;;;;;;;6.97;2.88;;;;;;;34.30;27.04;97968.16;10526269;28;20044;-76
2023/07/11 10:28:48;;;;;;;5.07;3.08;;;;;;;35.15;26.84;97964.63;10498477;28;20047;-76
2023/07/11 10:34:28;;;;;;;7.90;3.20;;;;;;;35.34;25.36;97953.22;10499481;28;20393;-76
2023/07/11 10:39:50;;;;;;;4.45;3.28;;;;;;;34.58;25.78;97948.69;10512056;28;20048;-76
2023/07/11 10:45:19;;;;;;;4.82;3.10;;;;;;;34.16;26.32;97951.13;10512113;28;20044;-76
2023/07/11 10:50:49;;;;;;;6.88;3.58;;;;;;;33.88;27.00;97946.00;10525253;28;20472;-76
2023/07/11 10:56:23;;;;;;;5.10;3.10;;;;;;;34.17;26.97;97929.41;10483864;28;20051;-76
2023/07/11 11:01:46;;;;;;;4.05;3.10;;;;;;;35.88;25.62;97910.28;10525108;28;20047;-76
2023/07/11 11:07:09;;;;;;;4.90;2.95;;;;;;;37.56;24.68;97905.97;10524870;28;20052;-75
2023/07/11 11:12:44;;;;;;;7.00;3.55;;;;;;;35.95;23.36;97907.91;10524538;28;20537;-76
2023/07/11 11:18:22;;;;;;;6.05;3.58;;;;;;;34.17;25.18;97909.13;10524887;28;20075;-76
2023/07/11 11:24:06;;;;;;;4.82;3.60;;;;;;;34.08;26.11;97890.53;10539516;28;20036;-76
2023/07/11 11:29:45;;;;;;;6.10;3.40;;;;;;;34.82;26.01;97887.16;10512190;28;20036;-76
2023/07/11 11:35:31;;;;;;;6.55;4.07;;;;;;;34.35;25.93;97891.25;10524782;28;20040;-76
2023/07/11 11:40:56;;;;;;;6.93;3.97;;;;;;;34.67;26.32;97875.25;10501452;28;20036;-76
2023/07/11 11:46:19;;;;;;;6.10;4.43;;;;;;;34.60;25.33;97873.28;10519181;28;20048;-76
2023/07/11 11:51:43;;;;;;;4.57;4.07;;;;;;;34.80;25.61;97858.25;10505248;28;20473;-77
2023/07/11 11:57:04;;;;;;;6.05;4.65;;;;;;;33.76;26.20;97857.94;10518180;28;20535;-76
2023/07/11 12:02:33;;;;;;;5.40;4.35;;;;;;;34.13;26.30;97848.38;10517881;28;20055;-76
2023/07/11 12:08:25;;;;;;;5.55;4.50;;;;;;;34.09;26.40;97851.41;10504012;28;20040;-76
2023/07/11 12:14:17;;;;;;;5.88;4.60;;;;;;;34.64;25.57;97838.38;10531116;28;20468;-76
2023/07/11 12:19:41;;;;;;;7.43;4.75;;;;;;;34.09;26.17;97828.22;10531350;28;20104;-76
2023/07/11 12:25:05;;;;;;;5.60;4.57;;;;;;;32.71;27.82;97817.47;10546176;28;20101;-76
2023/07/11 12:30:41;;;;;;;8.43;4.97;;;;;;;32.61;28.51;97806.81;10545890;28;20068;-76
2023/07/11 12:36:08;;;;;;;7.82;4.93;;;;;;;32.94;27.96;97801.16;10530463;28;20115;-76
2023/07/11 12:41:56;;;;;;;6.07;4.88;;;;;;;33.15;27.92;97795.63;10530355;28;20123;-76
2023/07/11 12:47:18;;;;;;;5.75;4.35;;;;;;;33.30;27.19;97782.31;10504506;28;20512;-77
2023/07/11 12:52:39;;;;;;;7.65;5.35;;;;;;;33.57;26.95;97775.91;10515307;28;20047;-76
2023/07/11 12:58:00;;;;;;;7.70;5.43;;;;;;;33.46;26.79;97766.75;10529955;28;20051;-76
2023/07/11 13:03:26;;;;;;;6.90;5.30;;;;;;;33.46;26.46;97774.72;10515360;28;20312;-76
2023/07/11 13:08:47;;;;;;;5.75;4.40;;;;;;;33.07;27.06;97766.19;10529630;28;20489;-76
2023/07/11 13:14:09;;;;;;;7.82;5.32;;;;;;;33.58;26.67;97757.78;10514999;28;20510;-76
2023/07/11 13:19:30;;;;;;;5.82;5.22;;;;;;;33.51;27.11;97747.13;10515038;28;20075;-76
2023/07/11 13:24:57;;;;;;;10.13;6.00;;;;;;;32.83;27.49;97750.81;10514870;28;20047;-76
2023/07/11 13:30:27;;;;;;;8.88;5.40;;;;;;;32.73;27.40;97739.44;10528791;28;20119;-76
2023/07/11 13:35:57;;;;;;;9.52;5.93;;;;;;;32.75;27.54;97737.22;10515027;28;20044;-76
2023/07/11 13:41:31;;;;;;;11.50;6.63;;;;;;;32.38;28.39;97722.78;10527927;28;20466;-76
2023/07/11 13:46:52;;;;;;;9.80;5.85;;;;;;;32.63;28.49;97720.13;10500285;28;20044;-76
2023/07/11 13:52:27;;;;;;;6.20;5.40;;;;;;;32.93;27.70;97710.13;10527639;28;20048;-76
2023/07/11 13:57:48;;;;;;;7.35;5.68;;;;;;;32.11;28.66;97705.22;10514271;28;20401;-76
2023/07/11 14:03:15;;;;;;;8.82;6.35;;;;;;;31.77;29.63;97700.09;10513506;28;20421;-76
2023/07/11 14:08:37;;;;;;;7.40;6.40;;;;;;;31.65;30.19;97689.44;10513522;28;20047;-75
2023/07/11 14:13:59;;;;;;;8.27;6.10;;;;;;;31.54;29.92;97688.19;10541543;28;20508;-76
2023/07/11 14:19:25;;;;;;;8.40;6.68;;;;;;;31.79;30.03;97671.94;10498864;28;20441;-76
2023/07/11 14:24:46;;;;;;;8.68;6.90;;;;;;;32.24;29.33;97679.75;10512893;28;20072;-77
2023/07/11 14:30:11;;;;;;;8.50;6.68;;;;;;;32.25;29.00;97668.91;10512639;28;20040;-76
2023/07/11 14:35:33;;;;;;;9.10;6.13;;;;;;;32.30;29.26;97664.47;10511815;28;20068;-76
2023/07/11 14:40:53;;;;;;;9.60;6.75;;;;;;;32.09;29.27;97664.88;10525616;28;20060;-76
2023/07/11 14:46:14;;;;;;;9.57;7.10;;;;;;;31.84;29.39;97663.91;10511481;28;20060;-76
2023/07/11 14:51:36;;;;;;;9.83;7.33;;;;;;;31.51;29.72;97652.91;10525342;28;20044;-76
2023/07/11 14:56:56;;;;;;;9.23;6.82;;;;;;;31.66;29.69;97649.78;10525616;28;20043;-76
2023/07/11 15:02:37;;;;;;;13.37;8.40;;;;;;;31.75;29.13;97645.28;10527662;28;20048;-76
2023/07/11 15:07:58;;;;;;;10.80;6.53;;;;;;;31.94;29.79;97637.00;10524966;28;20040;-76
2023/07/11 15:13:23;;;;;;;8.98;7.15;;;;;;;31.99;29.04;97627.53;10497657;28;20297;-76
2023/07/11 15:18:47;;;;;;;10.65;6.72;;;;;;;31.94;29.74;97620.41;10525089;28;20040;-76
2023/07/11 15:24:13;;;;;;;9.57;6.55;;;;;;;31.83;29.64;97599.69;10539674;28;20048;-76
2023/07/11 15:29:35;;;;;;;10.45;7.25;;;;;;;31.57;29.73;97603.78;10497395;28;20075;-76
2023/07/11 15:34:55;;;;;;;10.13;7.03;;;;;;;31.41;30.17;97603.34;10524304;28;20040;-76
2023/07/11 15:40:24;;;;;;;9.87;7.53;;;;;;;31.45;30.09;97597.50;10524370;28;20040;-76
2023/07/11 15:45:44;;;;;;;9.45;7.15;;;;;;;31.45;29.78;97591.75;10524212;28;20052;-76
2023/07/11 15:51:05;;;;;;;12.20;7.10;;;;;;;31.37;30.18;97581.09;10510437;28;20044;-76
2023/07/11 15:56:26;;;;;;;9.68;7.15;;;;;;;31.16;30.73;97574.19;10509907;28;20036;-76
2023/07/11 16:01:47;;;;;;;9.80;6.80;;;;;;;31.29;30.17;97573.28;10523998;28;20044;-77
2023/07/11 16:07:10;;;;;;;10.40;7.10;;;;;;;31.21;30.30;97567.66;10495518;28;20059;-77
2023/07/11 16:12:31;;;;;;;9.80;7.45;;;;;;;31.12;31.13;97568.50;10509914;28;20493;-76
2023/07/11 16:17:53;;;;;;;9.50;7.22;;;;;;;31.04;30.75;97558.53;10523919;28;20066;-76
2023/07/11 16:23:16;;;;;;;9.13;7.32;;;;;;;30.99;30.87;97551.44;10509935;28;20071;-76
2023/07/11 16:28:37;;;;;;;11.25;7.88;;;;;;;30.99;30.74;97545.66;10513490;28;20055;-76
2023/07/11 16:33:58;;;;;;;11.73;8.07;;;;;;;30.96;31.22;97529.84;10516635;28;20064;-76
2023/07/11 16:39:20;;;;;;;11.60;7.65;;;;;;;31.01;30.74;97525.47;10502613;28;20123;-76
2023/07/11 16:44:41;;;;;;;9.27;7.68;;;;;;;30.87;31.21;97528.56;10516549;28;20147;-76
2023/07/11 16:50:02;;;;;;;11.30;7.95;;;;;;;30.71;31.43;97534.63;10530249;28;20374;-75
2023/07/11 16:55:23;;;;;;;11.50;7.90;;;;;;;30.64;31.27;97522.47;10529770;28;20051;-75
2023/07/11 17:00:46;;;;;;;12.32;7.80;;;;;;;30.55;31.86;97517.53;10529795;28;20063;-76
2023/07/11 17:06:29;;;;;;;10.52;8.10;;;;;;;30.40;32.00;97523.53;10501810;28;20052;-76
2023/07/11 17:11:51;;;;;;;10.00;8.25;;;;;;;30.34;31.78;97517.16;10515881;28;20040;-76
2023/07/11 17:17:23;;;;;;;12.30;8.18;;;;;;;30.26;32.39;97512.22;10529218;28;20044;-76
2023/07/11 17:22:47;;;;;;;11.15;8.63;;;;;;;30.13;32.19;97508.09;10501632;28;20043;-75
2023/07/11 17:28:27;;;;;;;13.38;7.20;;;;;;;30.01;32.17;97513.97;10528404;28;20410;-76
2023/07/11 17:33:49;;;;;;;11.87;8.00;;;;;;;29.93;32.61;97506.88;10514471;28;20119;-76
2023/07/11 17:39:30;;;;;;;10.07;7.40;;;;;;;29.81;32.91;97507.03;10513935;28;20069;-76
2023/07/11 17:44:55;;;;;;;10.98;7.88;;;;;;;29.70;33.41;97502.13;10527796;28;20040;-76
2023/07/11 17:50:22;;;;;;;10.65;8.27;;;;;;;29.57;33.74;97504.47;10500124;28;20043;-76
2023/07/11 17:55:45;;;;;;;11.10;8.55;;;;;;;29.41;33.86;97496.69;10527723;28;20040;-75
2023/07/11 18:01:13;;;;;;;11.02;8.20;;;;;;;29.19;34.35;97494.78;10513444;28;20040;-75
2023/07/11 18:06:35;;;;;;;9.90;7.72;;;;;;;29.00;34.57;97493.53;10513632;28;20056;-76
2023/07/11 18:11:56;;;;;;;9.52;7.85;;;;;;;28.86;34.71;97499.41;10510131;28;20098;-75
2023/07/11 18:17:20;;;;;;;13.20;8.07;;;;;;;28.69;35.15;97505.25;10526569;28;20044;-75
2023/07/11 18:22:42;;;;;;;10.05;7.80;;;;;;;28.50;35.18;97495.38;10498698;28;20093;-76
2023/07/11 18:28:11;;;;;;;13.77;8.73;;;;;;;28.40;35.67;97489.69;10512230;28;20040;-76
2023/07/11 18:33:32;;;;;;;14.60;8.52;;;;;;;28.23;35.71;97494.81;10498265;28;20047;-76
2023/07/11 18:38:53;;;;;;;11.90;8.50;;;;;;;28.09;36.12;97487.00;10525367;28;20098;-75
2023/07/11 18:44:14;;;;;;;14.45;9.40;;;;;;;27.92;36.41;97482.81;10511545;28;20051;-76
2023/07/11 18:49:35;;;;;;;11.00;8.50;;;;;;;27.78;36.63;97483.56;10524025;28;20047;-75
2023/07/11 18:54:57;;;;;;;12.23;8.43;;;;;;;27.62;37.09;97475.03;10497028;28;20066;-74
2023/07/11 19:00:29;;;;;;;10.65;8.10;;;;;;;27.48;37.48;97475.78;10481020;28;20048;-75
2023/07/11 19:05:50;;;;;;;;;;;;;;;27.31;37.84;97480.13;10497936;28;20044;-76
2023/07/11 19:11:13;;;;;;;11.20;7.68;;;;;;;27.20;38.44;97467.28;10524422;28;19965;-75
2023/07/11 19:16:34;;;;;;;10.88;8.07;;;;;;;27.08;38.59;97474.47;10524465;28;20051;-73
2023/07/11 19:21:54;;;;;;;10.18;7.70;;;;;;;26.96;38.81;97468.75;10510198;28;20533;-74
2023/07/11 19:27:15;;;;;;;11.30;7.95;;;;;;;26.82;39.40;97469.47;10510372;28;20119;-74
2023/07/11 19:32:36;;;;;;;13.15;8.07;;;;;;;26.71;39.25;97462.31;10524060;28;20051;-73
2023/07/11 19:38:02;;;;;;;9.30;7.30;;;;;;;26.63;39.62;97453.03;10510163;28;20068;-74
2023/07/11 19:43:23;;;;;;;10.77;7.28;;;;;;;26.56;39.99;97437.31;10482871;28;20047;-74
2023/07/11 19:48:45;;;;;;;9.73;7.40;;;;;;;26.46;39.88;97438.75;10482511;28;20040;-73
2023/07/11 19:54:06;;;;;;;9.52;7.35;;;;;;;26.33;40.19;97420.09;10523567;28;20115;-74
2023/07/11 19:59:27;;;;;;;9.65;7.78;;;;;;;26.21;40.75;97411.53;10523701;28;20110;-74
2023/07/11 20:04:48;;;;;;;11.88;7.68;;;;;;;26.15;40.56;97412.25;10531278;28;20056;-73
2023/07/11 20:10:35;;;;;;;13.27;8.35;;;;;;;26.04;40.86;97390.06;10517241;28;20066;-73
2023/07/11 20:15:57;;;;;;;11.65;7.97;;;;;;;25.94;41.29;97385.75;10533344;28;20440;-73
2023/07/11 20:21:19;;;;;;;16.85;8.40;;;;;;;25.81;41.79;97378.59;10503126;28;20036;-73
2023/07/11 20:26:41;;;;;;;12.55;7.78;;;;;;;25.69;41.82;97364.25;10502843;28;20051;-73
2023/07/11 20:32:03;;;;;;;10.32;7.45;;;;;;;25.61;42.28;97347.09;10530535;28;20067;-74
2023/07/11 20:37:23;;;;;;;10.88;7.20;;;;;;;25.52;42.46;97337.78;10516049;28;20068;-74
2023/07/11 20:42:45;;;;;;;10.27;7.30;;;;;;;25.40;42.57;97332.78;10501809;28;20046;-74
2023/07/11 20:48:05;;;;;;;10.38;7.75;;;;;;;25.33;42.91;97330.59;10515712;28;20040;-75
2023/07/11 20:53:27;;;;;;;9.93;7.40;;;;;;;25.24;42.88;97318.44;10515587;28;20115;-75
2023/07/11 20:58:48;;;;;;;12.07;7.90;;;;;;;25.18;43.08;97304.13;10515309;28;20063;-74
2023/07/11 21:04:09;;;;;;;10.27;7.65;;;;;;;25.16;43.32;97323.41;10515239;28;20048;-74
2023/07/11 21:09:29;;;;;;;12.07;7.50;;;;;;;25.10;43.35;97358.38;10514803;28;20090;-75
2023/07/11 21:14:50;;;;;;;10.93;7.95;;;;;;;25.06;43.20;97341.22;10527825;28;20402;-73
2023/07/11 21:20:19;;;;;;;11.07;7.35;;;;;;;25.08;43.59;97306.94;10514458;28;20114;-74
2023/07/11 21:25:41;;;;;;;13.98;8.80;;;;;;;25.04;43.77;97335.50;10528692;28;20064;-74
2023/07/11 21:31:05;;;;;;;11.27;7.10;;;;;;;25.01;43.31;97317.63;10514160;28;20106;-74
2023/07/11 21:36:27;;;;;;;13.60;8.45;;;;;;;25.05;43.79;97303.38;10528674;28;20048;-75
2023/07/11 21:41:48;;;;;;;14.80;7.90;;;;;;;24.95;43.63;97308.31;10513515;28;20040;-74
2023/07/11 21:47:09;;;;;;;11.68;8.18;;;;;;;24.92;44.06;97318.31;10513709;28;20071;-74
2023/07/11 21:52:30;;;;;;;12.95;7.95;;;;;;;24.92;44.18;97344.00;10513315;28;20063;-75
2023/07/11 21:57:50;;;;;;;12.43;8.10;;;;;;;24.90;43.93;97355.38;10527153;28;20056;-75
2023/07/11 22:03:24;;;;;;;11.43;8.40;;;;;;;24.91;44.46;97353.97;10512214;28;20044;-73
2023/07/11 22:08:46;;;;;;;12.90;8.27;;;;;;;24.94;44.31;97356.13;10527352;28;20050;-75
2023/07/11 22:14:08;;;;;;;11.13;8.20;;;;;;;24.94;44.78;97349.72;10512471;28;20066;-74
2023/07/11 22:19:29;;;;;;;14.80;9.00;;;;;;;24.92;44.69;97338.28;10498380;28;20089;-74
2023/07/11 22:24:49;;;;;;;12.38;9.10;;;;;;;24.86;45.19;97318.25;10511173;28;20048;-75
2023/07/11 22:30:16;;;;;;;12.43;8.65;;;;;;;24.83;45.38;97320.41;10497937;28;20474;-74
2023/07/11 22:35:37;;;;;;;11.73;9.40;;;;;;;24.76;45.57;97316.09;10540823;28;20063;-75
2023/07/11 22:40:59;;;;;;;13.20;9.38;;;;;;;24.68;45.91;97319.59;10511491;28;20102;-74
2023/07/11 22:46:20;;;;;;;12.82;9.38;;;;;;;24.64;45.89;97311.03;10511611;28;20075;-75
2023/07/11 22:51:40;;;;;;;11.40;8.52;;;;;;;24.61;46.48;97326.72;10511201;28;20066;-75
2023/07/11 22:57:03;;;;;;;11.85;9.27;;;;;;;24.61;46.71;97323.88;10510634;28;20044;-74
2023/07/11 23:02:24;;;;;;;11.38;8.52;;;;;;;24.59;47.03;97318.13;10524957;28;20040;-74
2023/07/11 23:07:46;;;;;;;13.35;8.98;;;;;;;24.52;47.84;97314.53;10496744;28;20063;-75
2023/07/11 23:13:07;;;;;;;15.00;8.90;;;;;;;24.48;47.64;97308.09;10510244;28;20047;-75
2023/07/11 23:18:28;;;;;;;14.05;9.30;;;;;;;24.38;48.07;97310.88;10510335;28;20089;-74
2023/07/11 23:23:49;;;;;;;13.88;9.27;;;;;;;24.37;48.52;97318.00;10510193;28;20063;-73
2023/07/11 23:29:13;;;;;;;11.13;8.23;;;;;;;24.35;49.02;97309.44;10523880;28;20447;-74
2023/07/11 23:34:34;;;;;;;12.48;8.90;;;;;;;24.38;48.66;97299.47;10509961;28;20048;-75
2023/07/11 23:39:54;;;;;;;15.25;8.30;;;;;;;24.42;49.47;97300.22;10518510;28;20115;-75
2023/07/11 23:45:15;;;;;;;11.55;8.38;;;;;;;24.40;49.36;97290.91;10518281;28;20442;-75
2023/07/11 23:50:36;;;;;;;11.07;7.82;;;;;;;24.44;49.44;97276.69;10518140;28;20044;-74
2023/07/11 23:55:58;;;;;;;12.88;8.75;;;;;;;24.47;49.21;97269.56;10517892;28;20116;-74
